Latest Coastal Weather Observations for Lord Howe Island

IDN60701

Issued at 7:45 pm EST Friday 22 August 2014 (issued every 10 minutes, with the page automatically refreshed every 10 minutes)

About coastal observations | Map of coastal stations | Coastal observations for NSW | Marine services | Other Formats
Station Details ID: 200839 Name: LORD HOWE ISLAND AERO Lat: -31.54 Lon: 159.08 Height: 5.0 m
Data from the previous 72 hours. | See also: Recent months at Lord Howe Island
Date/Time
EST
Temp

°C
Wind Pressure Rain
since 9am
mm
Weather Cloud Vis
km
Sea
Height
m
Swell
Dir
 
Speed
knots
Gust
knots
hPa Trend Height
m
Period
s
Dir
22/07:30pm 16.0 E 18 25 1029.2 - 0.0 - Partly cloudy 10 - - - -
22/07:00pm 16.3 E 17 27 1029.0 - 0.0 - Partly cloudy 10 - - - -
22/06:57pm 16.3 E 16 27 1029.0 - 0.0 - Partly cloudy 10 - - - -
22/06:30pm 16.0 E 17 23 1029.0 - 0.0 - Partly cloudy 10 - - - -
22/06:00pm 15.9 E 15 21 1028.9 - 0.0 - Partly cloudy 10 - - - -
22/05:30pm 16.3 E 16 20 1028.6 - 0.0 - Cloudy 10 - - - -
22/05:00pm 16.2 E 17 22 1028.4 - 0.0 - Partly cloudy 10 - - - -
22/04:30pm 16.3 E 17 22 1028.3 - 0.0 - Partly cloudy 10 - - - -
22/04:00pm 16.9 E 16 20 1027.9 - 0.0 - Partly cloudy 10 - - - -
22/03:30pm 17.0 E 15 19 1027.7 - 0.0 - Partly cloudy 10 - - - -
22/03:00pm 17.1 E 16 21 1027.6 - 0.0 - Partly cloudy 10 - - - -
22/02:30pm 17.8 E 15 19 1027.6 F 0.0 Fine Mostly cloudy 20 - - - -
22/02:00pm 17.7 E 14 19 1027.9 - 0.0 - Partly cloudy 10 - - - -
22/01:30pm 17.5 E 14 17 1027.9 - 0.0 - Partly cloudy 10 - - - -
22/01:00pm 17.8 E 13 17 1028.1 - 0.0 - Partly cloudy 10 - - - -
22/12:30pm 18.2 E 13 16 1028.2 - 0.0 - Partly cloudy 10 - - - -
22/12:00pm 18.1 E 13 16 1028.5 - 0.0 - - 10 - - - -
22/11:30am 17.9 E 14 17 1028.7 - 0.0 - - 10 - - - -
22/11:00am 17.9 E 14 18 1029.1 - 0.0 - Partly cloudy 10 - - - -
22/10:30am 18.3 E 14 18 1029.2 - 0.0 - Partly cloudy 10 - - - -
22/10:00am 18.4 E 14 17 1029.3 - 0.0 - Partly cloudy 10 - - - -
22/09:30am 18.3 E 15 19 1029.5 - 0.0 - Partly cloudy 10 - - - -
22/09:00am 18.0 E 16 20 1029.3 - 0.0 - Partly cloudy 10 - - - -
22/08:30am 17.3 E 16 21 1029.2 R 0.2 Fine Partly cloudy 20 - - - -
22/08:00am 17.2 E 14 20 1029.2 - 0.2 - Partly cloudy 10 - - - -
22/07:30am 17.2 E 15 18 1028.9 - 0.2 - Partly cloudy 10 - - - -
22/07:00am 16.8 E 15 18 1028.5 - 0.2 - Partly cloudy 10 - - - -
22/06:30am 16.1 E 11 17 1028.2 - 0.2 - Partly cloudy 10 - - - -
22/06:00am 15.7 E 13 17 1028.0 - 0.2 - Partly cloudy 10 - - - -
22/05:30am 16.0 E 14 19 1027.3 R 0.2 Fine Partly cloudy 20 - - - -
22/05:00am 15.6 E 10 17 1027.1 - 0.2 - Partly cloudy 10 - - - -
22/04:30am 15.6 E 13 19 1026.8 - 0.2 - Partly cloudy 10 - - - -
22/04:00am 15.3 E 12 18 1026.5 - 0.2 - Partly cloudy 10 - - - -
22/03:30am 15.7 E 11 19 1026.0 - 0.2 - Partly cloudy 10 - - - -
22/03:00am 15.2 E 11 15 1026.1 - 0.2 - Partly cloudy 10 - - - -
22/02:30am 15.4 E 16 21 1026.4 - 0.2 - Cloudy 10 - - - -
22/02:00am 15.7 E 11 17 1026.4 - 0.2 - Partly cloudy 10 - - - -
22/01:30am 15.7 E 9 15 1026.6 - 0.2 - Partly cloudy 10 - - - -
22/01:00am 15.7 E 10 15 1026.6 - 0.2 - Partly cloudy 10 - - - -
22/12:30am 15.7 E 12 17 1026.7 - 0.2 - Partly cloudy 10 - - - -
22/12:00am 15.4 SE 4 7 1026.9 - 0.2 - Partly cloudy 10 - - - -
 
Date/Time
EST
Temp

°C
Wind Pressure Rain
since 9am
mm
Weather Cloud Vis
km
Sea
Height
m
Swell
Dir
 
Speed
knots
Gust
knots
hPa Trend Height
m
Period
s
Dir
21/11:30pm 15.6 ESE 7 10 1027.0 - 0.2 - Cloudy 10 - - - -
21/11:00pm 15.5 E 14 20 1026.8 - 0.2 - - 10 - - - -
21/10:30pm 15.6 E 11 15 1026.8 - 0.2 - - 10 - - - -
21/10:00pm 15.9 E 13 18 1026.6 - 0.2 - Partly cloudy 10 - - - -
21/09:30pm 16.1 E 13 18 1026.6 - 0.2 - Partly cloudy 10 - - - -
21/09:00pm 15.6 E 12 15 1026.5 - 0.2 - Partly cloudy 10 - - - -
21/08:30pm 15.2 SSE 8 11 1026.7 - 0.2 - Cloudy 10 - - - -
21/08:00pm 15.9 E 13 17 1026.2 - 0.2 - Partly cloudy 10 - - - -
21/07:30pm 15.9 E 13 19 1026.1 - 0.2 - Partly cloudy 10 - - - -
21/07:00pm 16.0 E 9 18 1026.0 - 0.2 - Partly cloudy 10 - - - -
21/06:30pm 16.0 E 10 13 1025.6 - 0.2 - Partly cloudy 10 - - - -
21/06:18pm 16.0 E 15 19 1025.5 - 0.2 - Partly cloudy 10 - - - -
21/06:00pm 15.4 E 3 6 1025.2 - 0.2 - Partly cloudy 10 - - - -
21/05:30pm 14.8 NE 3 6 1024.9 - 0.2 - Cloudy 10 - - - -
21/05:00pm 15.5 SE 6 11 1024.5 - 0.2 - Partly cloudy 10 - - - -
21/04:30pm 15.9 E 13 20 1023.8 - 0.2 - Partly cloudy 10 - - - -
21/04:00pm 16.6 E 7 13 1023.4 - 0.2 - Partly cloudy 10 - - - -
21/03:30pm 16.9 E 8 13 1023.1 - 0.2 - Partly cloudy 10 - - - -
21/02:30pm 16.6 E 12 22 1022.9 S 0.2 Fine Mostly cloudy 22 - - - -
21/02:00pm 16.6 SSW 7 14 1023.2 - 0.2 - Partly cloudy 10 - - - -
21/01:30pm 17.7 WNW 5 10 1023.1 - 0.2 - Partly cloudy 10 - - - -
21/01:00pm 18.5 W 7 13 1023.1 - 0.2 - Partly cloudy 10 - - - -
21/12:30pm 18.1 S 7 15 1023.2 - 0.2 - Mostly clear 10 - - - -
21/12:00pm 17.9 SW 7 17 1023.5 - 0.2 - Mostly clear 10 - - - -
21/11:30am 17.1 WNW 6 15 1023.8 R 0.2 Fine Partly cloudy 25 - - - -
21/11:00am 17.6 E 11 18 1023.9 - 0.2 - Partly cloudy 10 - - - -
21/10:30am 17.9 E 13 21 1024.1 - 0.2 - Partly cloudy 10 - - - -
21/10:00am 18.0 E 12 20 1024.0 - 0.2 - Partly cloudy 10 - - - -
21/09:30am 18.0 E 14 21 1024.2 - 0.2 - Partly cloudy 10 - - - -
21/09:00am 17.2 ESE 10 17 1024.1 - 0.2 - Partly cloudy 10 - - - -
21/08:30am 17.3 E 11 16 1024.1 R 3.4 Fine Partly cloudy 25 - - - -
21/08:00am 16.4 E 3 5 1023.9 - 3.4 - Partly cloudy 10 - - - -
21/07:30am 16.3 SSE 4 9 1023.8 - 3.4 - Partly cloudy 10 - - - -
21/07:00am 16.2 SE 4 7 1023.5 - - - Mostly clear 10 - - - -
21/06:30am 15.0 SE 9 15 1023.1 - 3.4 - Mostly clear 10 - - - -
21/06:00am 15.1 SE 6 12 1022.8 - 3.4 - Mostly clear 10 - - - -
21/05:30am 15.0 ESE 6 13 1022.5 R 3.4 Recent precip. Mostly cloudy 25 - - - -
21/05:02am 14.5 ESE 12 23 1022.1 - - - Partly cloudy 10 - - - -
21/05:00am 14.5 ESE 12 23 1022.2 - - - Partly cloudy 10 - - - -
21/04:30am 15.9 ESE 7 13 1021.7 - - - Partly cloudy 10 - - - -
21/04:00am 16.1 ESE 3 7 1021.5 - - - Partly cloudy 10 - - - -
21/03:30am 15.6 SE 5 11 1021.4 - - - Partly cloudy 10 - - - -
21/03:00am 15.4 SE 5 12 1021.1 - - - Partly cloudy 10 - - - -
21/02:30am 15.8 SE 8 14 1021.0 - - - Cloudy 10 - - - -
21/02:00am 15.9 SSE 7 12 1020.8 - - - Partly cloudy 10 - - - -
21/01:30am 15.9 SE 7 13 1021.0 - - - Partly cloudy 10 - - - -
21/01:00am 16.2 SE 8 13 1021.1 - - - Partly cloudy 10 - - - -
21/12:30am 15.7 SE 7 11 1021.1 - - - Partly cloudy 10 - - - -
21/12:00am 16.5 SE 7 11 1020.9 - - - Partly cloudy 10 - - - -
 
Date/Time
EST
Temp

°C
Wind Pressure Rain
since 9am
mm
Weather Cloud Vis
km
Sea
Height
m
Swell
Dir
 
Speed
knots
Gust
knots
hPa Trend Height
m
Period
s
Dir
20/11:30pm 16.3 SE 7 11 1020.7 - - - Cloudy 10 - - - -
20/11:00pm 15.9 ESE 6 12 1020.5 - - - Partly cloudy 10 - - - -
20/10:30pm 15.5 ESE 3 10 1020.5 - - - Partly cloudy 10 - - - -
20/10:28pm 15.6 ESE 3 10 1020.5 - - - Partly cloudy 10 - - - -
20/10:12pm 15.4 ESE 11 24 1020.4 - - - Cloudy 6 - - - -
20/10:06pm 16.2 E 16 23 1020.1 - - - Partly cloudy 10 - - - -
20/10:00pm 16.5 ESE 5 13 1020.3 - - - Cloudy 10 - - - -
20/09:30pm 16.6 SSE 5 11 1020.0 - - - Partly cloudy 10 - - - -
20/09:00pm 16.4 W 6 13 1019.9 - - - Partly cloudy 10 - - - -
20/08:30pm 16.8 S 5 8 1019.6 - - - Cloudy 10 - - - -
20/08:00pm 16.9 NW 5 13 1019.4 - - - Partly cloudy 10 - - - -
20/07:30pm 16.9 SSE 7 12 1019.1 - - - Partly cloudy 10 - - - -
20/07:00pm 17.0 SSE 5 13 1019.0 - - - Cloudy 10 - - - -
20/06:30pm 16.8 ESE 7 20 1018.8 - - - Cloudy 10 - - - -
20/06:00pm 16.9 ESE 8 16 1018.3 - - - Cloudy 10 - - - -
20/05:30pm 17.2 S 5 10 1017.7 - - - Cloudy 10 - - - -
20/05:00pm - ESE 6 10 - - - - - - - - - -
20/04:30pm 17.7 WNW 6 17 1016.9 - - - Partly cloudy 10 - - - -
20/04:00pm 17.9 ESE 7 15 1016.4 - - - Partly cloudy 10 - - - -
20/03:30pm 18.3 - - - 1015.8 - - - Partly cloudy 10 - - - -
20/01:30pm 19.4 SSW 7 15 1014.7 - 1.6 - Mostly clear 10 - - - -
20/01:00pm 18.5 SSW 7 16 1014.4 - 1.6 - Mostly clear 10 - - - -
20/12:30pm 18.3 SW 9 15 1014.3 - 1.6 - Mostly clear 10 - - - -
20/12:00pm 17.4 SSW 7 22 1014.3 - 1.6 - Mostly clear 10 - - - -
20/11:30am 16.9 S 8 17 1014.6 R 1.6 Showers Mostly cloudy 8 - - - -
20/11:16am 18.0 SSW 9 20 1014.5 - 0.8 Showers Mostly clear 5 - - - -
20/11:00am 18.1 SSW 8 15 1014.5 - 0.8 - Mostly clear 10 - - - -
20/10:30am 18.6 S 10 16 1014.3 - 0.8 - Mostly clear 10 - - - -
20/10:06am 17.8 S 6 12 1014.2 - 0.8 - Partly cloudy 10 - - - -
20/10:00am 17.2 SE 7 10 1014.3 - 0.8 Showers Mostly clear 10 - - - -
20/09:30am 19.2 S 8 14 1014.0 - 0.0 - Mostly clear 10 - - - -
20/09:00am 18.5 SE 7 14 1013.7 - 0.0 - Mostly clear 10 - - - -
20/08:30am 18.8 S 6 11 1013.3 R 0.0 Distant precip. Partly cloudy 25 - - - -
20/08:00am 17.8 SSW 10 17 1013.0 - 0.0 - Mostly clear 10 - - - -
20/07:30am 18.3 SW 10 15 1012.6 - 0.0 - Partly cloudy 10 - - - -
20/07:00am 18.1 SW 10 15 1012.1 - 0.0 - Mostly clear 10 - - - -
20/06:30am 17.7 SW 9 15 1011.7 - 0.0 - Mostly clear 10 - - - -
20/06:00am 17.6 SW 10 14 1011.3 - 0.0 - Mostly clear 10 - - - -
20/05:30am 17.3 SSW 8 15 1010.7 R 0.0 Fine Partly cloudy 25 - - - -
20/05:00am 17.4 SW 9 17 1010.4 - 0.0 - Partly cloudy 10 - - - -
20/04:30am 17.6 SW 12 17 1010.0 - 0.0 - Partly cloudy 10 - - - -
20/04:00am 17.6 SW 10 16 1009.7 - 0.0 - Partly cloudy 10 - - - -
20/03:30am 17.6 SW 12 18 1009.4 - 0.0 - Partly cloudy 10 - - - -
20/03:00am 17.5 SW 10 14 1009.2 - 0.0 - Partly cloudy 10 - - - -
20/02:30am 17.4 SW 10 14 1009.0 - 0.0 - Cloudy 10 - - - -
20/02:00am 17.5 SW 10 14 1008.9 - 0.0 - Partly cloudy 10 - - - -
20/01:30am 17.4 SW 10 15 1008.8 - 0.0 - Partly cloudy 10 - - - -
20/01:00am 17.4 SW 9 14 1008.9 - 0.0 - Partly cloudy 10 - - - -
20/12:30am 17.4 SW 8 13 1008.9 - 0.0 - Partly cloudy 10 - - - -
20/12:00am 17.4 SW 10 14 1009.0 - 0.0 - Partly cloudy 10 - - - -
 
Date/Time
EST
Temp

°C
Wind Pressure Rain
since 9am
mm
Weather Cloud Vis
km
Sea
Height
m
Swell
Dir
 
Speed
knots
Gust
knots
hPa Trend Height
m
Period
s
Dir
19/11:30pm 17.3 SW 10 14 1008.8 - 0.0 - Cloudy 10 - - - -
19/11:00pm 17.2 SW 8 13 1008.8 - 0.0 - - 10 - - - -
19/10:30pm 17.2 SW 8 13 1008.7 - 0.0 - Partly cloudy 10 - - - -
19/10:00pm 17.4 SW 9 13 1008.5 - 0.0 - Partly cloudy 10 - - - -
19/09:30pm 17.5 SW 10 13 1008.5 - 0.0 - Partly cloudy 10 - - - -
19/09:00pm 17.6 SW 10 14 1008.4 - 0.0 - Partly cloudy 10 - - - -
19/08:30pm 17.7 SW 11 17 1008.2 - 0.0 - Cloudy 10 - - - -
19/08:00pm 17.8 SW 12 17 1008.1 - 0.0 - Partly cloudy 10 - - - -
19/07:30pm 18.0 SW 12 17 1007.8 - 0.0 - Partly cloudy 10 - - - -

Other Formats:

Comma delimited format used in spreadsheet applications
http://www.bom.gov.au/fwo/IDN60701/IDN60701.94995.axf

JavaScript Object Notation format (JSON) in row-major order
http://www.bom.gov.au/fwo/IDN60701/IDN60701.94995.json